EHEH/EIN METAR and TAF weather

Enter ICAO airport designator
Station Type Date Time Source
EHEH METAR 2020/04/05 18:55 UTC NOAA

EHEH 051855Z AUTO 12007KT 090V150 9999 NCD 17/01 Q1017 BLU


Station Type Date Time Source
EHEH Decoded METAR 2020/04/05 18:55 UTC NOAA

Eindhoven, Netherlands (EHEH) 51-27N 005-25E 28M
Apr 05, 2020 - 02:55 PM EDT / 2020.04.05 1855 UTC
Wind: from the ESE (120 degrees) at 8 MPH (7 KT) (direction variable):0
Visibility: greater than 7 mile(s):0
Temperature: 62 F (17 C)
Dew Point: 33 F (1 C)
Relative Humidity: 33%
Pressure (altimeter): 30.03 in. Hg (1017 hPa)
ob: EHEH 051855Z AUTO 12007KT 090V150 9999 NCD 17/01 Q1017 BLU
cycle: 19

Station Type Date Time Source
EHEH TAF 2020/04/05 18:51 UTC NOAA

TAF TAF EHEH 051741Z 0518/0624 12008KT CAVOK
BECMG 0607/0609 20010G20KT
BECMG 0616/0619 27010G20KT SCT025
TEMPO 0618/0622 4500 RA BKN015
BECMG 0622/0624 24003KT CAVOK

Example: see airport list